Time;durP1;ratioP1;P1;durP2;ratioP2;P2;SDS_P1;SDS_P2;PMS_P1;PMS_P2;Temp;Humidity;BMP_temperature;BMP_pressure;BME280_temperature;BME280_humidity;BME280_pressure;Samples;Min_cycle;Max_cycle;Signal;HPM_P1;HPM_P2
2022/12/06 00:00:41;;;;;;;8.60;7.27;;;;;;;8.48;59.64;97669.25;5037324;28;20278;-70
2022/12/06 00:03:07;;;;;;;9.57;7.43;;;;;;;8.56;59.87;97655.56;5027829;28;20264;-70
2022/12/06 00:05:32;;;;;;;16.40;11.50;;;;;;;8.50;60.29;97658.66;5021662;28;20258;-70
2022/12/06 00:07:58;;;;;;;16.17;11.67;;;;;;;8.57;60.65;97658.03;5025134;28;20222;-69
2022/12/06 00:10:24;;;;;;;16.17;10.57;;;;;;;8.61;60.35;97655.97;5040047;28;20196;-68
2022/12/06 00:12:49;;;;;;;9.60;8.03;;;;;;;8.63;59.91;97654.06;5031364;28;20184;-68
2022/12/06 00:15:15;;;;;;;9.50;7.80;;;;;;;8.65;59.93;97657.38;5039961;28;20421;-68
2022/12/06 00:17:40;;;;;;;9.97;8.13;;;;;;;8.65;59.11;97667.00;5035413;28;20231;-70
2022/12/06 00:20:06;;;;;;;10.20;8.10;;;;;;;8.67;59.83;97652.03;5035745;28;20268;-70
2022/12/06 00:22:31;;;;;;;10.80;8.00;;;;;;;8.63;59.83;97658.50;5031222;28;20188;-70
2022/12/06 00:24:57;;;;;;;9.10;7.87;;;;;;;8.63;59.47;97654.06;5027523;28;20505;-70
2022/12/06 00:27:22;;;;;;;11.93;9.37;;;;;;;8.62;60.22;97665.47;5027812;28;20180;-68
2022/12/06 00:29:48;;;;;;;14.70;11.30;;;;;;;8.63;60.44;97664.53;5025391;28;20236;-69
2022/12/06 00:32:13;;;;;;;17.73;11.83;;;;;;;8.65;60.45;97653.94;5034142;28;20683;-67
2022/12/06 00:34:39;;;;;;;18.57;10.80;;;;;;;8.64;60.35;97649.66;5040653;28;20191;-68
2022/12/06 00:37:04;;;;;;;12.90;10.60;;;;;;;8.64;60.36;97645.28;5040308;28;20210;-67
2022/12/06 00:39:30;;;;;;;16.73;10.57;;;;;;;8.62;59.49;97646.38;5046490;28;20195;-69
2022/12/06 00:41:55;;;;;;;12.70;8.73;;;;;;;8.60;59.85;97638.66;5046744;28;20214;-67
2022/12/06 00:44:21;;;;;;;9.93;7.80;;;;;;;8.62;59.74;97636.75;5039716;28;20191;-69
2022/12/06 00:46:46;;;;;;;9.50;7.80;;;;;;;8.63;59.42;97641.00;5040599;28;20266;-68
2022/12/06 00:49:12;;;;;;;10.50;7.67;;;;;;;8.63;58.60;97638.41;5044587;28;20760;-68
2022/12/06 00:51:38;;;;;;;7.50;6.00;;;;;;;8.67;59.15;97637.19;5042075;28;20178;-68
2022/12/06 00:54:05;;;;;;;8.53;5.87;;;;;;;8.68;58.29;97643.22;5031869;28;20191;-68
2022/12/06 00:56:31;;;;;;;8.60;6.43;;;;;;;8.65;57.97;97644.31;5035487;28;20410;-68
2022/12/06 00:58:56;;;;;;;17.10;10.70;;;;;;;8.51;59.26;97642.03;5047407;28;20461;-68
2022/12/06 01:01:24;;;;;;;20.30;13.10;;;;;;;8.55;59.42;97646.06;5032106;28;20427;-68
2022/12/06 01:03:52;;;;;;;23.73;13.63;;;;;;;8.58;59.66;97640.56;5042269;28;20186;-68
2022/12/06 01:06:21;;;;;;;22.17;13.20;;;;;;;8.51;60.26;97640.25;5042211;28;20511;-66
2022/12/06 01:08:47;;;;;;;20.50;13.20;;;;;;;8.50;60.23;97637.78;5034412;28;20486;-73
2022/12/06 01:11:15;;;;;;;18.30;11.90;;;;;;;8.54;60.18;97639.19;5045049;28;20540;-68
2022/12/06 01:13:41;;;;;;;18.53;11.57;;;;;;;8.53;59.63;97642.75;5043026;28;20248;-68
2022/12/06 01:16:09;;;;;;;22.43;11.50;;;;;;;8.48;60.01;97639.69;5042448;28;20426;-67
2022/12/06 01:18:35;;;;;;;18.90;11.60;;;;;;;8.39;60.16;97639.47;5037259;28;20492;-68
2022/12/06 01:21:05;;;;;;;19.90;11.90;;;;;;;8.39;60.42;97642.09;5044172;28;20921;-67
2022/12/06 01:23:30;;;;;;;21.10;13.20;;;;;;;8.35;60.13;97637.25;5033132;28;20268;-68
2022/12/06 01:25:56;;;;;;;19.87;11.40;;;;;;;8.22;60.17;97635.66;5039670;28;20552;-67
2022/12/06 01:28:21;;;;;;;19.20;11.67;;;;;;;8.09;60.95;97641.03;5043514;28;20183;-67
2022/12/06 01:30:47;;;;;;;14.43;10.00;;;;;;;8.17;61.14;97647.44;5043640;28;20658;-67
2022/12/06 01:33:12;;;;;;;10.57;8.17;;;;;;;8.22;61.05;97634.81;5037492;28;20203;-67
2022/12/06 01:35:40;;;;;;;11.63;7.87;;;;;;;8.27;60.74;97643.09;5042750;28;20196;-67
2022/12/06 01:38:06;;;;;;;10.30;7.20;;;;;;;8.34;60.47;97644.25;5038898;28;20215;-67
2022/12/06 01:40:40;;;;;;;9.70;6.90;;;;;;;8.39;60.49;97642.09;5049795;28;20456;-67
2022/12/06 01:43:27;;;;;;;9.60;7.40;;;;;;;8.37;59.67;97633.53;5039858;28;20509;-68
2022/12/06 01:45:53;;;;;;;11.87;8.07;;;;;;;8.27;60.15;97637.88;5050222;28;21070;-68
2022/12/06 01:48:19;;;;;;;10.13;7.40;;;;;;;8.33;60.50;97632.13;5044699;28;20427;-67
2022/12/06 01:50:45;;;;;;;8.97;7.47;;;;;;;8.36;60.52;97631.88;5044059;28;20179;-68
2022/12/06 01:53:11;;;;;;;9.40;7.30;;;;;;;8.33;59.93;97628.69;5043284;28;20422;-68
2022/12/06 01:55:38;;;;;;;9.90;7.57;;;;;;;8.36;60.27;97626.66;5026744;28;20177;-68
2022/12/06 01:58:08;;;;;;;10.10;6.93;;;;;;;8.19;60.35;97619.41;5041401;28;20719;-67
2022/12/06 02:00:34;;;;;;;8.90;6.40;;;;;;;8.28;60.65;97618.66;5035092;28;20448;-67
2022/12/06 02:03:00;;;;;;;12.63;6.33;;;;;;;8.29;60.57;97625.53;5037599;28;20435;-68
2022/12/06 02:05:27;;;;;;;8.57;6.83;;;;;;;8.21;60.49;97630.53;5042739;28;20215;-67
2022/12/06 02:07:52;;;;;;;11.40;8.23;;;;;;;8.06;60.86;97623.03;5044135;28;20449;-67
2022/12/06 02:10:18;;;;;;;11.10;7.87;;;;;;;8.08;61.22;97626.31;5039332;28;21051;-67
2022/12/06 02:12:44;;;;;;;12.00;9.53;;;;;;;8.01;61.22;97622.56;5043861;28;20267;-69
2022/12/06 02:15:10;;;;;;;13.13;8.60;;;;;;;8.04;61.40;97621.50;5014240;28;20209;-68
2022/12/06 02:17:38;;;;;;;11.90;8.20;;;;;;;8.05;60.91;97624.00;5043610;28;20286;-69
2022/12/06 02:20:25;;;;;;;11.57;7.40;;;;;;;8.09;60.91;97614.94;5046576;28;20454;-68
2022/12/06 02:23:12;;;;;;;14.33;7.97;;;;;;;8.03;61.75;97617.22;5033918;28;20414;-68
2022/12/06 02:25:57;;;;;;;9.93;7.27;;;;;;;7.91;61.12;97612.06;5040800;28;20414;-69
2022/12/06 02:28:31;;;;;;;7.53;6.57;;;;;;;7.93;61.10;97619.78;5043573;28;20424;-69
2022/12/06 02:31:03;;;;;;;8.67;6.63;;;;;;;8.06;61.23;97611.75;5044202;28;20422;-68
2022/12/06 02:33:41;;;;;;;9.07;6.40;;;;;;;8.12;60.51;97611.25;5036634;28;20540;-68
2022/12/06 02:36:15;;;;;;;7.77;5.70;;;;;;;8.12;60.58;97604.25;5043969;28;20467;-68
2022/12/06 02:39:04;;;;;;;7.13;6.00;;;;;;;8.23;60.63;97605.97;5045766;28;20553;-68
2022/12/06 02:41:34;;;;;;;6.47;5.60;;;;;;;8.23;60.01;97605.13;5043801;28;20425;-69
2022/12/06 02:44:05;;;;;;;8.87;6.40;;;;;;;8.14;60.97;97606.72;5036255;28;20426;-68
2022/12/06 02:46:34;;;;;;;7.30;6.07;;;;;;;8.21;60.39;97601.81;5037632;28;20437;-69
2022/12/06 02:49:02;;;;;;;7.53;6.47;;;;;;;8.22;60.53;97603.47;5043684;28;20447;-69
2022/12/06 02:51:29;;;;;;;9.33;6.50;;;;;;;8.23;60.33;97602.53;5043110;28;20445;-68
2022/12/06 02:53:57;;;;;;;8.10;6.10;;;;;;;8.28;60.36;97597.75;5015647;28;20438;-69
2022/12/06 02:56:23;;;;;;;8.53;6.00;;;;;;;8.26;59.81;97602.28;5036768;28;20419;-66
2022/12/06 02:58:48;;;;;;;7.30;5.70;;;;;;;8.26;60.56;97605.69;5050073;28;20468;-68
2022/12/06 03:01:16;;;;;;;7.60;6.07;;;;;;;8.27;60.02;97602.13;5042803;28;20191;-68
2022/12/06 03:03:56;;;;;;;7.60;5.97;;;;;;;8.33;60.88;97599.97;5038177;28;20528;-68
2022/12/06 03:06:50;;;;;;;8.60;6.23;;;;;;;8.35;60.58;97598.06;5043104;28;20417;-69
2022/12/06 03:09:24;;;;;;;8.00;6.47;;;;;;;8.18;59.97;97595.06;5040263;28;20458;-68
2022/12/06 03:11:59;;;;;;;7.57;6.77;;;;;;;8.12;60.99;97599.03;5042319;28;20461;-68
2022/12/06 03:14:26;;;;;;;8.30;6.40;;;;;;;8.19;61.24;97601.13;5048666;28;22631;-68
2022/12/06 03:17:28;;;;;;;9.90;6.60;;;;;;;8.24;60.80;97597.19;5034153;28;20511;-67
2022/12/06 03:19:57;;;;;;;8.63;6.07;;;;;;;8.26;60.88;97599.66;5032679;28;20437;-66
2022/12/06 03:22:29;;;;;;;9.17;6.10;;;;;;;8.28;60.44;97592.53;5039137;28;20514;-68
2022/12/06 03:24:55;;;;;;;7.00;6.10;;;;;;;8.22;60.30;97590.41;5034960;28;20928;-69
2022/12/06 03:27:21;;;;;;;6.67;5.73;;;;;;;8.25;60.86;97592.78;5045907;28;20518;-68
2022/12/06 03:29:52;;;;;;;6.30;5.50;;;;;;;8.26;60.39;97589.22;5046450;28;20495;-68
2022/12/06 03:32:20;;;;;;;9.33;5.73;;;;;;;8.26;60.18;97584.00;5045873;28;20303;-68
2022/12/06 03:34:48;;;;;;;6.43;5.80;;;;;;;8.26;59.81;97586.59;5017466;28;20430;-68
2022/12/06 03:37:16;;;;;;;6.23;5.60;;;;;;;8.22;60.49;97579.97;5041637;28;20490;-70
2022/12/06 03:40:07;;;;;;;8.73;6.00;;;;;;;8.30;59.39;97577.56;5038368;28;20450;-66
2022/12/06 03:42:33;;;;;;;6.60;5.50;;;;;;;8.34;60.12;97578.94;5042847;28;20417;-66
2022/12/06 03:44:58;;;;;;;8.63;5.80;;;;;;;8.37;60.20;97580.50;5042934;28;20418;-69
2022/12/06 03:47:31;;;;;;;8.07;5.63;;;;;;;8.41;60.31;97577.50;5050798;28;20572;-68
2022/12/06 03:50:02;;;;;;;17.93;6.10;;;;;;;8.42;60.14;97578.31;5041179;28;20202;-68
2022/12/06 03:52:28;;;;;;;7.57;6.00;;;;;;;8.34;59.55;97586.78;5050576;28;20429;-68
2022/12/06 03:54:53;;;;;;;6.10;5.23;;;;;;;8.23;60.59;97573.78;5030151;28;20423;-68
2022/12/06 03:57:19;;;;;;;7.50;6.17;;;;;;;8.02;61.51;97577.25;5036765;28;20461;-66
2022/12/06 03:59:45;;;;;;;7.57;6.10;;;;;;;8.12;60.91;97572.91;5048372;28;20286;-69
2022/12/06 04:02:10;;;;;;;6.03;5.43;;;;;;;8.19;61.22;97572.41;5040498;28;20191;-66
2022/12/06 04:04:36;;;;;;;7.53;5.77;;;;;;;8.19;60.87;97577.63;5050322;28;20655;-68
2022/12/06 04:07:01;;;;;;;7.60;5.97;;;;;;;8.25;60.64;97571.88;5040498;28;20198;-67
2022/12/06 04:14:54;;;;;;;8.23;6.30;;;;;;;7.95;61.64;97565.63;5045541;28;20471;-68
2022/12/06 04:20:05;;;;;;;7.27;5.43;;;;;;;7.79;62.19;97556.50;5014112;28;20233;-68
2022/12/06 04:25:14;;;;;;;7.47;5.30;;;;;;;7.97;61.54;97553.28;5039507;28;20436;-68
2022/12/06 04:38:42;;;;;;;7.37;6.20;;;;;;;8.12;61.04;97549.41;5021308;28;22299;-66
2022/12/06 04:41:09;;;;;;;7.13;6.03;;;;;;;8.15;61.01;97549.16;5041756;28;20417;-67
2022/12/06 04:43:43;;;;;;;7.40;6.00;;;;;;;8.18;60.99;97555.09;5025375;28;20468;-69
2022/12/06 04:46:11;;;;;;;6.80;5.60;;;;;;;8.22;60.70;97551.25;5045463;28;20429;-69
2022/12/06 04:48:36;;;;;;;6.30;5.30;;;;;;;8.13;60.63;97537.19;5021742;28;20960;-68
2022/12/06 04:51:02;;;;;;;6.50;5.63;;;;;;;8.03;61.34;97544.13;5049658;28;20517;-69
2022/12/06 04:53:27;;;;;;;9.67;6.60;;;;;;;7.98;61.63;97540.13;5028067;28;20171;-68
2022/12/06 04:55:53;;;;;;;10.40;7.20;;;;;;;8.08;61.32;97540.19;5039797;28;20530;-68
2022/12/06 04:58:18;;;;;;;7.13;5.70;;;;;;;8.06;61.61;97534.28;5042149;28;20204;-68
2022/12/06 05:00:44;;;;;;;7.23;5.67;;;;;;;8.11;61.42;97539.13;5035578;28;20187;-67
2022/12/06 05:03:10;;;;;;;9.43;5.80;;;;;;;8.11;60.89;97532.09;5044334;28;20643;-67
2022/12/06 05:05:36;;;;;;;7.93;5.90;;;;;;;8.15;61.13;97533.50;5038160;28;20175;-67
2022/12/06 05:08:02;;;;;;;5.30;4.80;;;;;;;8.19;61.16;97528.84;5044668;28;20429;-68
2022/12/06 05:10:27;;;;;;;7.60;5.97;;;;;;;8.25;60.67;97530.09;5030730;28;20438;-67
2022/12/06 05:12:53;;;;;;;6.20;5.30;;;;;;;8.25;60.64;97536.16;5037164;28;20430;-67
2022/12/06 05:15:18;;;;;;;7.53;5.87;;;;;;;8.28;59.59;97530.66;5044648;28;20270;-68
2022/12/06 05:17:44;;;;;;;6.47;5.30;;;;;;;8.29;59.29;97531.50;5043835;28;20210;-66
2022/12/06 05:20:10;;;;;;;10.97;5.90;;;;;;;8.27;59.56;97525.59;5036679;28;20203;-67
2022/12/06 05:22:35;;;;;;;7.33;6.53;;;;;;;8.33;60.18;97538.09;5045002;28;20605;-67
2022/12/06 05:25:00;;;;;;;9.13;6.40;;;;;;;8.32;60.40;97533.84;5040504;28;20193;-66
2022/12/06 05:27:26;;;;;;;10.77;7.57;;;;;;;8.32;60.25;97543.47;5032337;28;20186;-66
2022/12/06 05:29:51;;;;;;;8.37;6.43;;;;;;;8.26;60.94;97539.59;5037719;28;20290;-67
2022/12/06 05:32:17;;;;;;;13.40;8.87;;;;;;;8.21;61.08;97536.53;5039964;28;20264;-67
2022/12/06 05:34:42;;;;;;;62.63;32.70;;;;;;;8.26;61.17;97542.22;5044198;28;20183;-67
2022/12/06 05:37:08;;;;;;;94.80;45.60;;;;;;;8.22;60.83;97546.88;5042161;28;20189;-67
2022/12/06 05:39:33;;;;;;;84.83;40.57;;;;;;;8.22;60.58;97541.66;5040132;28;20678;-67
2022/12/06 05:41:58;;;;;;;35.80;19.50;;;;;;;8.26;59.78;97532.56;5044573;28;20183;-67
2022/12/06 05:44:24;;;;;;;26.37;16.10;;;;;;;8.24;59.76;97534.50;5034547;28;21685;-67
2022/12/06 05:46:49;;;;;;;19.93;12.50;;;;;;;8.30;58.65;97543.63;5032173;28;20258;-68
2022/12/06 05:49:15;;;;;;;15.97;10.30;;;;;;;8.33;58.61;97535.50;5018438;28;20195;-68
2022/12/06 05:51:40;;;;;;;10.67;7.73;;;;;;;8.40;57.97;97538.41;5042581;28;20193;-69
2022/12/06 05:54:06;;;;;;;9.90;6.50;;;;;;;8.36;57.10;97530.03;5035016;28;20561;-68
2022/12/06 05:56:32;;;;;;;10.73;7.87;;;;;;;8.38;57.52;97528.13;5043678;28;20258;-68
2022/12/06 05:58:57;;;;;;;8.57;6.70;;;;;;;8.42;57.83;97528.66;5044510;28;20211;-68
2022/12/06 06:01:23;;;;;;;5.93;5.20;;;;;;;8.37;57.42;97526.47;5039284;28;20896;-68
2022/12/06 06:03:48;;;;;;;6.03;5.43;;;;;;;8.39;57.11;97515.88;5015120;28;20183;-68
2022/12/06 06:06:14;;;;;;;6.57;5.67;;;;;;;8.43;56.62;97523.34;5029795;28;20237;-67
2022/12/06 06:08:40;;;;;;;5.13;4.63;;;;;;;8.48;56.52;97529.97;5038367;28;20206;-68
2022/12/06 06:11:05;;;;;;;7.20;5.53;;;;;;;8.44;56.12;97532.00;5023503;28;20447;-68
2022/12/06 06:13:31;;;;;;;7.50;5.47;;;;;;;8.49;55.63;97526.41;5029696;28;20179;-67
2022/12/06 06:15:56;;;;;;;8.70;5.33;;;;;;;8.49;55.82;97529.84;5039243;28;20273;-69
2022/12/06 06:18:22;;;;;;;11.63;5.00;;;;;;;8.44;55.86;97530.19;5027499;28;20636;-68
2022/12/06 06:20:51;;;;;;;5.50;5.00;;;;;;;8.36;55.61;97531.81;5030783;28;20250;-69
2022/12/06 06:23:18;;;;;;;6.17;5.30;;;;;;;8.32;55.72;97526.00;5029078;28;20269;-68
2022/12/06 06:25:43;;;;;;;7.10;5.77;;;;;;;8.38;55.64;97527.28;5032591;28;20520;-69
2022/12/06 06:28:09;;;;;;;7.10;5.80;;;;;;;8.41;55.49;97529.63;5030348;28;20521;-68
2022/12/06 06:30:34;;;;;;;6.67;5.47;;;;;;;8.41;55.54;97535.69;5028034;28;20538;-69
2022/12/06 06:33:00;;;;;;;7.27;6.27;;;;;;;8.33;55.84;97532.88;5032483;28;20201;-69
2022/12/06 06:35:25;;;;;;;6.17;4.90;;;;;;;8.34;56.23;97533.72;5028495;28;20184;-68
2022/12/06 06:37:51;;;;;;;6.60;5.90;;;;;;;8.26;55.90;97529.16;5032202;28;20729;-69
2022/12/06 06:40:16;;;;;;;14.70;9.43;;;;;;;8.17;58.10;97524.72;5009374;28;20671;-69
2022/12/06 06:42:42;;;;;;;16.97;11.00;;;;;;;8.25;58.52;97530.09;5030712;28;20257;-69
2022/12/06 06:45:07;;;;;;;16.13;10.30;;;;;;;8.15;58.67;97519.59;5025311;28;20183;-68
2022/12/06 06:47:33;;;;;;;17.40;10.60;;;;;;;8.20;59.06;97521.81;5024389;28;20643;-69
2022/12/06 06:49:58;;;;;;;17.20;10.30;;;;;;;8.27;59.18;97513.34;5030917;28;20202;-69
2022/12/06 06:52:24;;;;;;;16.70;10.03;;;;;;;8.32;58.70;97520.78;5031708;28;20661;-68
2022/12/06 06:54:49;;;;;;;13.23;8.90;;;;;;;8.38;58.61;97525.50;5030328;28;20176;-68
2022/12/06 06:57:15;;;;;;;13.27;9.20;;;;;;;8.37;58.39;97529.06;5030671;28;20214;-68
2022/12/06 06:59:41;;;;;;;11.33;8.23;;;;;;;8.36;58.10;97531.81;5027253;28;20578;-68
2022/12/06 07:02:11;;;;;;;11.03;7.47;;;;;;;8.25;58.01;97532.72;5008788;28;20184;-69
2022/12/06 07:04:36;;;;;;;9.47;7.73;;;;;;;8.16;59.17;97531.69;5027335;28;20466;-68
2022/12/06 07:07:02;;;;;;;12.63;8.33;;;;;;;8.24;59.04;97537.13;5017096;28;20598;-69
2022/12/06 07:09:27;;;;;;;11.80;8.33;;;;;;;8.17;59.79;97543.00;5031435;28;20199;-68
2022/12/06 07:11:53;;;;;;;13.70;9.90;;;;;;;8.25;59.40;97535.31;5024586;28;20184;-69
2022/12/06 07:14:18;;;;;;;14.17;9.00;;;;;;;8.31;59.15;97542.66;5020118;28;20180;-68
2022/12/06 07:16:44;;;;;;;10.10;8.77;;;;;;;8.24;58.74;97541.50;5020172;28;20230;-68
2022/12/06 07:19:09;;;;;;;8.97;7.47;;;;;;;8.19;58.89;97541.91;5026120;28;20208;-68
2022/12/06 07:21:35;;;;;;;8.43;7.10;;;;;;;8.14;59.07;97538.84;5028406;28;20674;-68
2022/12/06 07:24:00;;;;;;;10.50;7.20;;;;;;;8.14;59.19;97539.69;5024896;28;20339;-68
2022/12/06 07:26:27;;;;;;;10.23;7.33;;;;;;;8.26;58.45;97542.22;5030121;28;20179;-69
2022/12/06 07:28:55;;;;;;;9.97;6.57;;;;;;;8.27;57.55;97542.06;5022179;28;20453;-69
2022/12/06 07:31:26;;;;;;;7.67;6.37;;;;;;;8.27;57.55;97543.88;5030824;28;20429;-69
2022/12/06 07:33:53;;;;;;;9.80;6.67;;;;;;;8.25;57.58;97541.38;5013313;28;20462;-69
2022/12/06 07:36:19;;;;;;;6.70;6.00;;;;;;;8.18;56.82;97544.66;5033957;28;20979;-71
2022/12/06 07:38:52;;;;;;;13.70;6.60;;;;;;;8.14;57.12;97544.06;5029094;28;20462;-70
2022/12/06 07:46:47;;;;;;;8.20;6.50;;;;;;;8.31;58.98;97540.06;5034481;28;20426;-70
2022/12/06 07:49:14;;;;;;;10.17;6.70;;;;;;;8.36;58.91;97542.25;5031298;28;20596;-69
2022/12/06 07:51:40;;;;;;;8.60;6.80;;;;;;;8.28;58.76;97529.84;5034484;28;20199;-70
2022/12/06 07:54:06;;;;;;;14.13;10.37;;;;;;;8.09;58.99;97526.16;5033251;28;20422;-71
2022/12/06 07:56:31;;;;;;;9.27;7.20;;;;;;;8.12;59.37;97538.16;5015334;28;20489;-70
2022/12/06 07:58:57;;;;;;;6.93;6.23;;;;;;;8.19;59.84;97541.91;5033453;28;20222;-69
2022/12/06 08:01:22;;;;;;;11.10;6.60;;;;;;;8.26;59.65;97536.97;5032336;28;20186;-70
2022/12/06 08:03:49;;;;;;;10.00;6.50;;;;;;;8.29;59.78;97542.78;5032761;28;20191;-69
2022/12/06 08:06:14;;;;;;;8.90;6.13;;;;;;;8.41;59.22;97545.31;5031685;28;20184;-69
2022/12/06 08:08:40;;;;;;;9.83;6.30;;;;;;;8.44;58.79;97540.63;5032548;28;20422;-70
2022/12/06 08:11:06;;;;;;;8.30;5.97;;;;;;;8.50;58.38;97548.94;5035722;28;20211;-69
2022/12/06 08:13:32;;;;;;;6.90;5.20;;;;;;;8.49;57.94;97544.69;5014786;28;20184;-69
2022/12/06 08:15:58;;;;;;;8.97;5.90;;;;;;;8.41;57.61;97543.53;5032552;28;20427;-69
2022/12/06 08:18:24;;;;;;;9.70;6.40;;;;;;;8.26;58.92;97539.59;5028668;28;20508;-69
2022/12/06 08:20:51;;;;;;;19.83;7.10;;;;;;;8.21;58.99;97539.16;5032823;28;20195;-70
2022/12/06 08:23:17;;;;;;;13.10;6.60;;;;;;;8.21;59.27;97541.75;5014521;28;20492;-69
2022/12/06 08:25:43;;;;;;;7.50;6.30;;;;;;;8.21;59.49;97534.78;5031640;28;20521;-70
2022/12/06 08:28:08;;;;;;;6.93;6.13;;;;;;;8.33;59.38;97548.56;5031585;28;20517;-69
2022/12/06 08:30:34;;;;;;;6.43;5.37;;;;;;;8.37;59.08;97549.16;5032216;28;20203;-69
2022/12/06 08:32:59;;;;;;;7.07;5.80;;;;;;;8.33;58.79;97545.94;5031878;28;20195;-71
2022/12/06 08:35:24;;;;;;;8.20;6.70;;;;;;;8.28;59.04;97545.53;5031533;28;20665;-68
2022/12/06 08:37:50;;;;;;;8.83;5.50;;;;;;;8.28;58.87;97537.69;5030087;28;20208;-69
2022/12/06 08:40:15;;;;;;;9.13;6.50;;;;;;;8.31;58.54;97545.28;5030457;28;20574;-68
2022/12/06 08:42:42;;;;;;;8.23;6.33;;;;;;;8.33;58.38;97545.94;5035484;28;20254;-69
2022/12/06 08:45:08;;;;;;;10.80;6.60;;;;;;;8.30;58.18;97552.25;5038990;28;20187;-70
2022/12/06 08:47:33;;;;;;;6.73;6.03;;;;;;;8.20;58.53;97547.94;5028103;28;20446;-68
2022/12/06 08:49:58;;;;;;;8.50;5.90;;;;;;;8.25;57.93;97543.97;5031911;28;20207;-68
2022/12/06 08:52:24;;;;;;;6.60;5.50;;;;;;;8.31;58.25;97550.50;5036030;28;22131;-69
2022/12/06 08:54:49;;;;;;;8.87;5.50;;;;;;;8.37;58.24;97552.56;5034856;28;20182;-69
2022/12/06 08:57:15;;;;;;;7.73;5.47;;;;;;;8.45;57.89;97546.69;5033083;28;20191;-69
2022/12/06 08:59:41;;;;;;;7.40;6.30;;;;;;;8.48;57.89;97551.72;5031731;28;20271;-70
2022/12/06 09:02:09;;;;;;;8.40;6.43;;;;;;;8.37;58.34;97544.75;5013330;28;20195;-68
2022/12/06 09:04:35;;;;;;;8.77;6.20;;;;;;;8.34;58.20;97544.19;5013968;28;20176;-69
2022/12/06 09:07:00;;;;;;;8.70;6.30;;;;;;;8.34;57.86;97552.81;5034684;28;20449;-70
2022/12/06 09:09:25;;;;;;;8.20;6.60;;;;;;;8.43;58.26;97551.22;5034324;28;20195;-70
2022/12/06 09:11:51;;;;;;;7.77;6.17;;;;;;;8.58;57.94;97556.94;5025269;28;20180;-70
2022/12/06 09:14:17;;;;;;;6.53;5.87;;;;;;;8.65;57.97;97550.25;5035081;28;20526;-70
2022/12/06 09:16:43;;;;;;;7.60;6.30;;;;;;;8.66;57.35;97558.91;5029651;28;20184;-70
2022/12/06 09:19:10;;;;;;;7.40;6.00;;;;;;;8.73;57.47;97549.59;5013213;28;20473;-69
2022/12/06 09:21:38;;;;;;;7.73;6.60;;;;;;;8.76;57.58;97555.38;4997773;28;21050;-70
2022/12/06 09:24:04;;;;;;;7.90;6.90;;;;;;;8.80;57.54;97555.13;5037718;28;20441;-71
2022/12/06 09:26:30;;;;;;;8.20;6.57;;;;;;;8.80;57.07;97560.34;5013365;28;20426;-69
2022/12/06 09:28:56;;;;;;;7.27;6.13;;;;;;;8.74;57.20;97557.31;5029943;28;20794;-69
2022/12/06 09:31:21;;;;;;;7.27;6.30;;;;;;;8.72;57.18;97548.75;5029372;28;20190;-69
2022/12/06 09:33:47;;;;;;;7.77;6.20;;;;;;;8.76;56.83;97551.94;5030988;28;20737;-69
2022/12/06 09:36:16;;;;;;;7.13;5.70;;;;;;;8.75;57.36;97564.19;5030885;28;20430;-68
2022/12/06 09:38:44;;;;;;;7.07;6.37;;;;;;;8.78;57.44;97554.44;5033242;28;20250;-70
2022/12/06 09:41:30;;;;;;;10.13;7.13;;;;;;;8.72;57.73;97558.41;5017871;28;20421;-70
2022/12/06 09:44:31;;;;;;;7.33;6.40;;;;;;;8.67;57.24;97560.56;5030788;28;20910;-70
2022/12/06 09:47:15;;;;;;;34.97;18.03;;;;;;;8.56;57.09;97566.72;4983241;28;20426;-70
2022/12/06 09:50:07;;;;;;;41.10;20.80;;;;;;;8.68;57.27;97562.22;5029984;28;20508;-70
2022/12/06 09:53:04;;;;;;;61.93;30.40;;;;;;;8.71;57.37;97567.19;5025449;28;20882;-72
2022/12/06 09:55:29;;;;;;;18.03;12.60;;;;;;;8.65;57.73;97558.09;5035822;28;20414;-70
2022/12/06 09:58:25;;;;;;;10.23;8.17;;;;;;;8.59;57.35;97564.69;5028982;28;20466;-70
2022/12/06 10:01:13;;;;;;;10.23;6.43;;;;;;;8.64;57.74;97555.59;5030256;28;20195;-70
2022/12/06 10:04:04;;;;;;;10.00;8.30;;;;;;;8.63;57.09;97562.63;5006159;28;20426;-70
2022/12/06 10:06:39;;;;;;;10.40;7.07;;;;;;;8.64;57.93;97555.59;5027429;28;20472;-70
2022/12/06 10:09:14;;;;;;;10.30;7.60;;;;;;;8.74;57.47;97552.06;5032826;28;20445;-70
2022/12/06 10:12:01;;;;;;;8.30;7.13;;;;;;;8.77;57.84;97556.19;5035653;28;20434;-70
2022/12/06 10:14:44;;;;;;;12.20;7.10;;;;;;;8.82;57.25;97553.22;5018917;28;20542;-71
2022/12/06 10:17:45;;;;;;;10.90;7.60;;;;;;;8.84;56.99;97554.72;5026342;28;20438;-71
2022/12/06 10:20:20;;;;;;;10.37;7.90;;;;;;;8.85;56.93;97550.31;5030189;28;20451;-70
2022/12/06 10:22:59;;;;;;;11.30;8.17;;;;;;;8.83;57.71;97547.00;5030521;28;20426;-70
2022/12/06 10:25:29;;;;;;;15.10;9.90;;;;;;;8.87;57.55;97551.00;4995715;28;20812;-71
2022/12/06 10:28:31;;;;;;;18.87;10.87;;;;;;;8.94;57.55;97546.94;5030386;28;20533;-71
2022/12/06 10:31:04;;;;;;;13.97;10.70;;;;;;;8.98;57.63;97544.88;5007631;28;20437;-71
2022/12/06 10:33:46;;;;;;;16.43;10.97;;;;;;;8.96;57.61;97544.97;5029109;28;20461;-70
2022/12/06 10:36:15;;;;;;;16.20;11.63;;;;;;;8.98;57.40;97543.06;5029631;28;20430;-71
2022/12/06 10:38:48;;;;;;;15.93;11.50;;;;;;;9.00;58.19;97540.34;5031023;28;20470;-70
2022/12/06 10:41:40;;;;;;;17.07;12.20;;;;;;;9.04;57.57;97537.31;5017451;28;20773;-70
2022/12/06 10:44:16;;;;;;;15.30;11.00;;;;;;;9.06;57.06;97540.63;5028488;28;20505;-71
2022/12/06 10:47:03;;;;;;;16.30;11.90;;;;;;;9.04;57.43;97532.09;5027986;28;20517;-69
2022/12/06 10:49:51;;;;;;;16.80;11.77;;;;;;;9.09;57.62;97536.06;5022709;28;20435;-70
2022/12/06 10:52:38;;;;;;;16.00;11.70;;;;;;;9.10;57.02;97540.34;5020083;28;20434;-70
2022/12/06 10:55:09;;;;;;;17.30;12.00;;;;;;;9.09;57.31;97536.06;5015408;28;20435;-69
2022/12/06 10:57:42;;;;;;;16.03;11.33;;;;;;;9.05;57.46;97523.28;5010316;28;20950;-71
2022/12/06 11:00:15;;;;;;;14.50;11.30;;;;;;;9.12;57.38;97520.94;5007451;28;20489;-68
2022/12/06 11:02:46;;;;;;;19.20;13.10;;;;;;;9.09;57.24;97517.75;5007772;28;20433;-69
2022/12/06 11:05:24;;;;;;;16.97;12.37;;;;;;;9.14;57.02;97515.56;5020530;28;20791;-69
2022/12/06 11:07:54;;;;;;;16.90;12.13;;;;;;;9.19;57.23;97508.97;5016905;28;20431;-69
2022/12/06 11:10:23;;;;;;;15.27;11.77;;;;;;;9.21;57.33;97506.22;5022069;28;20464;-71
2022/12/06 11:12:55;;;;;;;16.03;11.90;;;;;;;9.20;57.20;97508.00;5015134;28;20434;-69
2022/12/06 11:15:31;;;;;;;16.37;12.77;;;;;;;9.19;56.98;97508.16;5032900;28;20419;-71
2022/12/06 11:18:24;;;;;;;16.13;11.23;;;;;;;9.15;56.85;97504.97;5029240;28;20469;-71
2022/12/06 11:20:57;;;;;;;16.60;12.40;;;;;;;9.18;56.96;97511.75;5020994;28;20455;-70
2022/12/06 11:23:47;;;;;;;20.10;12.60;;;;;;;9.14;57.13;97507.72;5006394;28;20433;-70
2022/12/06 11:26:29;;;;;;;16.23;11.50;;;;;;;9.09;57.44;97508.13;5009934;28;20438;-71
2022/12/06 11:29:04;;;;;;;15.77;11.17;;;;;;;9.10;56.85;97509.78;5026891;28;20443;-69
2022/12/06 11:31:39;;;;;;;17.07;13.30;;;;;;;9.08;57.57;97506.50;5041963;28;20948;-71
2022/12/06 11:34:08;;;;;;;16.23;12.57;;;;;;;9.12;57.52;97509.66;5046057;28;20453;-71
2022/12/06 11:36:34;;;;;;;22.00;13.37;;;;;;;9.13;56.59;97513.91;5028889;28;20430;-71
2022/12/06 11:38:59;;;;;;;16.40;12.60;;;;;;;9.09;56.86;97515.97;5027689;28;20471;-69
2022/12/06 11:41:28;;;;;;;18.40;13.80;;;;;;;9.02;57.51;97517.47;5033080;28;20195;-70
2022/12/06 11:43:53;;;;;;;17.20;12.07;;;;;;;9.00;57.29;97524.66;5030743;28;20190;-70
2022/12/06 11:46:20;;;;;;;16.37;12.27;;;;;;;8.99;57.11;97529.03;5031459;28;20798;-70
2022/12/06 11:48:46;;;;;;;18.47;12.63;;;;;;;9.04;57.49;97518.16;5030118;28;20259;-70
2022/12/06 11:51:18;;;;;;;17.83;13.27;;;;;;;9.06;57.17;97509.25;5031416;28;20518;-70
2022/12/06 11:54:06;;;;;;;16.10;12.67;;;;;;;9.09;57.12;97525.59;5033059;28;20188;-69
2022/12/06 11:56:34;;;;;;;17.57;12.10;;;;;;;9.09;56.96;97513.38;5037402;28;20449;-71
2022/12/06 11:59:02;;;;;;;15.93;11.73;;;;;;;9.06;57.32;97516.25;5032876;28;20846;-70
2022/12/06 12:01:59;;;;;;;16.30;11.50;;;;;;;9.09;57.95;97522.97;5014684;28;20518;-71
2022/12/06 12:04:38;;;;;;;18.03;11.73;;;;;;;9.09;57.88;97510.75;5026406;28;20444;-70
2022/12/06 12:07:09;;;;;;;17.50;12.00;;;;;;;9.01;57.62;97514.03;5020056;28;20433;-70
2022/12/06 12:09:56;;;;;;;19.33;13.33;;;;;;;9.02;57.93;97518.31;5031475;28;20493;-72
2022/12/06 12:12:23;;;;;;;17.70;12.07;;;;;;;9.01;57.33;97527.13;5031190;28;20434;-70